sensor_id;sensor_type;location;lat;lon;timestamp;P1;durP1;ratioP1;P2;durP2;ratioP2
54167;SDS011;40072;50.958;3.592;2023-02-17T00:02:01;4.35;;;3.50;;
54167;SDS011;40072;50.958;3.592;2023-02-17T00:04:30;4.07;;;3.70;;
54167;SDS011;40072;50.958;3.592;2023-02-17T00:06:57;5.15;;;3.67;;
54167;SDS011;40072;50.958;3.592;2023-02-17T00:09:23;3.55;;;3.25;;
54167;SDS011;40072;50.958;3.592;2023-02-17T00:11:49;4.97;;;3.17;;
54167;SDS011;40072;50.958;3.592;2023-02-17T00:14:15;4.28;;;3.38;;
54167;SDS011;40072;50.958;3.592;2023-02-17T00:16:41;4.45;;;3.72;;
54167;SDS011;40072;50.958;3.592;2023-02-17T00:19:08;6.32;;;4.30;;
54167;SDS011;40072;50.958;3.592;2023-02-17T00:21:57;5.90;;;5.30;;
54167;SDS011;40072;50.958;3.592;2023-02-17T00:24:25;6.68;;;5.60;;
54167;SDS011;40072;50.958;3.592;2023-02-17T00:26:52;6.13;;;5.53;;
54167;SDS011;40072;50.958;3.592;2023-02-17T00:29:18;5.32;;;4.82;;
54167;SDS011;40072;50.958;3.592;2023-02-17T00:31:43;10.30;;;6.07;;
54167;SDS011;40072;50.958;3.592;2023-02-17T00:34:10;5.97;;;5.38;;
54167;SDS011;40072;50.958;3.592;2023-02-17T00:36:36;5.82;;;5.32;;
54167;SDS011;40072;50.958;3.592;2023-02-17T00:39:02;5.45;;;4.95;;
54167;SDS011;40072;50.958;3.592;2023-02-17T00:41:29;4.90;;;4.50;;
54167;SDS011;40072;50.958;3.592;2023-02-17T00:43:55;4.82;;;4.32;;
54167;SDS011;40072;50.958;3.592;2023-02-17T00:46:21;4.78;;;4.10;;
54167;SDS011;40072;50.958;3.592;2023-02-17T00:48:47;5.55;;;3.53;;
54167;SDS011;40072;50.958;3.592;2023-02-17T00:51:13;4.50;;;3.53;;
54167;SDS011;40072;50.958;3.592;2023-02-17T00:53:40;6.43;;;3.88;;
54167;SDS011;40072;50.958;3.592;2023-02-17T00:56:06;5.03;;;3.63;;
54167;SDS011;40072;50.958;3.592;2023-02-17T00:58:33;5.40;;;4.32;;
54167;SDS011;40072;50.958;3.592;2023-02-17T01:00:59;5.53;;;4.18;;
54167;SDS011;40072;50.958;3.592;2023-02-17T01:03:25;6.55;;;3.85;;
54167;SDS011;40072;50.958;3.592;2023-02-17T01:05:52;6.80;;;4.63;;
54167;SDS011;40072;50.958;3.592;2023-02-17T01:08:18;4.68;;;4.20;;
54167;SDS011;40072;50.958;3.592;2023-02-17T01:10:45;5.47;;;4.90;;
54167;SDS011;40072;50.958;3.592;2023-02-17T01:13:13;7.07;;;5.07;;
54167;SDS011;40072;50.958;3.592;2023-02-17T01:15:41;5.88;;;5.00;;
54167;SDS011;40072;50.958;3.592;2023-02-17T01:18:09;5.75;;;5.00;;
54167;SDS011;40072;50.958;3.592;2023-02-17T01:20:35;6.78;;;5.00;;
54167;SDS011;40072;50.958;3.592;2023-02-17T01:23:02;6.22;;;5.47;;
54167;SDS011;40072;50.958;3.592;2023-02-17T01:25:28;7.50;;;5.82;;
54167;SDS011;40072;50.958;3.592;2023-02-17T01:27:54;5.10;;;4.15;;
54167;SDS011;40072;50.958;3.592;2023-02-17T01:30:20;5.18;;;4.22;;
54167;SDS011;40072;50.958;3.592;2023-02-17T01:32:46;6.00;;;4.13;;
54167;SDS011;40072;50.958;3.592;2023-02-17T01:35:12;6.65;;;5.13;;
54167;SDS011;40072;50.958;3.592;2023-02-17T01:37:37;4.95;;;4.45;;
54167;SDS011;40072;50.958;3.592;2023-02-17T01:40:03;6.72;;;5.13;;
54167;SDS011;40072;50.958;3.592;2023-02-17T01:42:29;6.43;;;4.30;;
54167;SDS011;40072;50.958;3.592;2023-02-17T01:50:34;2.83;;;2.60;;
54167;SDS011;40072;50.958;3.592;2023-02-17T01:53:09;3.58;;;2.22;;
54167;SDS011;40072;50.958;3.592;2023-02-17T01:55:38;3.45;;;2.70;;
54167;SDS011;40072;50.958;3.592;2023-02-17T01:58:06;3.97;;;2.22;;
54167;SDS011;40072;50.958;3.592;2023-02-17T02:00:35;2.42;;;2.22;;
54167;SDS011;40072;50.958;3.592;2023-02-17T02:03:01;4.90;;;2.42;;
54167;SDS011;40072;50.958;3.592;2023-02-17T02:05:30;4.30;;;2.38;;
54167;SDS011;40072;50.958;3.592;2023-02-17T02:07:57;2.83;;;1.92;;
54167;SDS011;40072;50.958;3.592;2023-02-17T02:10:23;3.63;;;2.50;;
54167;SDS011;40072;50.958;3.592;2023-02-17T02:12:48;2.10;;;2.00;;
54167;SDS011;40072;50.958;3.592;2023-02-17T02:15:19;3.20;;;1.88;;
54167;SDS011;40072;50.958;3.592;2023-02-17T02:34:25;2.92;;;2.25;;
54167;SDS011;40072;50.958;3.592;2023-02-17T02:37:00;4.57;;;2.42;;
54167;SDS011;40072;50.958;3.592;2023-02-17T02:39:34;3.85;;;2.97;;
54167;SDS011;40072;50.958;3.592;2023-02-17T02:42:07;4.85;;;3.00;;
54167;SDS011;40072;50.958;3.592;2023-02-17T02:44:37;3.15;;;2.40;;
54167;SDS011;40072;50.958;3.592;2023-02-17T02:47:04;5.20;;;2.40;;
54167;SDS011;40072;50.958;3.592;2023-02-17T02:49:50;5.82;;;2.50;;
54167;SDS011;40072;50.958;3.592;2023-02-17T02:52:22;5.28;;;2.75;;
54167;SDS011;40072;50.958;3.592;2023-02-17T02:57:42;4.93;;;2.60;;
54167;SDS011;40072;50.958;3.592;2023-02-17T03:05:39;5.07;;;2.33;;
54167;SDS011;40072;50.958;3.592;2023-02-17T03:11:06;3.17;;;2.83;;
54167;SDS011;40072;50.958;3.592;2023-02-17T03:13:35;8.60;;;3.15;;
54167;SDS011;40072;50.958;3.592;2023-02-17T03:16:04;4.68;;;3.03;;
54167;SDS011;40072;50.958;3.592;2023-02-17T03:18:31;5.95;;;2.97;;
54167;SDS011;40072;50.958;3.592;2023-02-17T03:20:59;8.40;;;3.60;;
54167;SDS011;40072;50.958;3.592;2023-02-17T03:23:28;7.32;;;3.83;;
54167;SDS011;40072;50.958;3.592;2023-02-17T03:25:54;5.38;;;3.08;;
54167;SDS011;40072;50.958;3.592;2023-02-17T03:28:20;7.63;;;3.38;;
54167;SDS011;40072;50.958;3.592;2023-02-17T03:30:45;7.50;;;3.35;;
54167;SDS011;40072;50.958;3.592;2023-02-17T03:33:11;7.57;;;3.05;;
54167;SDS011;40072;50.958;3.592;2023-02-17T03:35:37;8.07;;;2.85;;
54167;SDS011;40072;50.958;3.592;2023-02-17T03:38:02;8.57;;;3.15;;
54167;SDS011;40072;50.958;3.592;2023-02-17T03:40:28;6.05;;;3.40;;
54167;SDS011;40072;50.958;3.592;2023-02-17T03:42:54;8.43;;;3.67;;
54167;SDS011;40072;50.958;3.592;2023-02-17T03:45:21;7.00;;;3.50;;
54167;SDS011;40072;50.958;3.592;2023-02-17T03:47:47;6.78;;;3.40;;
54167;SDS011;40072;50.958;3.592;2023-02-17T03:50:13;9.20;;;4.10;;
54167;SDS011;40072;50.958;3.592;2023-02-17T03:52:38;11.85;;;4.60;;
54167;SDS011;40072;50.958;3.592;2023-02-17T03:55:04;5.07;;;3.25;;
54167;SDS011;40072;50.958;3.592;2023-02-17T03:57:30;6.95;;;3.60;;
54167;SDS011;40072;50.958;3.592;2023-02-17T03:59:56;6.88;;;4.28;;
54167;SDS011;40072;50.958;3.592;2023-02-17T04:02:22;7.68;;;3.10;;
54167;SDS011;40072;50.958;3.592;2023-02-17T04:04:48;9.02;;;4.45;;
54167;SDS011;40072;50.958;3.592;2023-02-17T04:07:14;14.27;;;4.63;;
54167;SDS011;40072;50.958;3.592;2023-02-17T04:09:39;13.52;;;4.00;;
54167;SDS011;40072;50.958;3.592;2023-02-17T04:12:05;9.40;;;4.53;;
54167;SDS011;40072;50.958;3.592;2023-02-17T04:14:31;12.98;;;4.07;;
54167;SDS011;40072;50.958;3.592;2023-02-17T04:16:56;10.70;;;4.53;;
54167;SDS011;40072;50.958;3.592;2023-02-17T04:19:22;9.70;;;4.88;;
54167;SDS011;40072;50.958;3.592;2023-02-17T04:21:48;12.70;;;4.57;;
54167;SDS011;40072;50.958;3.592;2023-02-17T04:24:13;10.02;;;4.70;;
54167;SDS011;40072;50.958;3.592;2023-02-17T04:26:39;11.40;;;4.57;;
54167;SDS011;40072;50.958;3.592;2023-02-17T04:29:05;7.20;;;4.00;;
54167;SDS011;40072;50.958;3.592;2023-02-17T04:31:30;8.15;;;3.70;;
54167;SDS011;40072;50.958;3.592;2023-02-17T04:33:56;9.00;;;4.68;;
54167;SDS011;40072;50.958;3.592;2023-02-17T04:36:22;8.23;;;4.32;;
54167;SDS011;40072;50.958;3.592;2023-02-17T04:38:47;9.90;;;4.68;;
54167;SDS011;40072;50.958;3.592;2023-02-17T04:41:13;11.15;;;5.00;;
54167;SDS011;40072;50.958;3.592;2023-02-17T04:43:39;11.07;;;4.60;;
54167;SDS011;40072;50.958;3.592;2023-02-17T04:46:04;10.27;;;5.60;;
54167;SDS011;40072;50.958;3.592;2023-02-17T04:48:30;13.25;;;5.28;;
54167;SDS011;40072;50.958;3.592;2023-02-17T04:50:55;10.05;;;5.97;;
54167;SDS011;40072;50.958;3.592;2023-02-17T04:53:21;10.00;;;5.78;;
54167;SDS011;40072;50.958;3.592;2023-02-17T04:55:48;11.43;;;6.22;;
54167;SDS011;40072;50.958;3.592;2023-02-17T04:58:14;11.43;;;5.97;;
54167;SDS011;40072;50.958;3.592;2023-02-17T05:00:40;12.05;;;6.28;;
54167;SDS011;40072;50.958;3.592;2023-02-17T05:03:06;9.60;;;5.78;;
54167;SDS011;40072;50.958;3.592;2023-02-17T05:05:31;15.50;;;8.13;;
54167;SDS011;40072;50.958;3.592;2023-02-17T05:07:57;13.65;;;6.32;;
54167;SDS011;40072;50.958;3.592;2023-02-17T05:10:23;10.43;;;5.57;;
54167;SDS011;40072;50.958;3.592;2023-02-17T05:12:49;12.13;;;6.55;;
54167;SDS011;40072;50.958;3.592;2023-02-17T05:15:14;12.00;;;6.03;;
54167;SDS011;40072;50.958;3.592;2023-02-17T05:17:40;14.82;;;5.82;;
54167;SDS011;40072;50.958;3.592;2023-02-17T05:20:06;10.95;;;5.45;;
54167;SDS011;40072;50.958;3.592;2023-02-17T05:22:32;7.25;;;5.40;;
54167;SDS011;40072;50.958;3.592;2023-02-17T05:24:58;6.78;;;4.15;;
54167;SDS011;40072;50.958;3.592;2023-02-17T05:27:24;9.77;;;5.85;;
54167;SDS011;40072;50.958;3.592;2023-02-17T05:29:50;9.82;;;5.85;;
54167;SDS011;40072;50.958;3.592;2023-02-17T05:32:16;6.70;;;4.80;;
54167;SDS011;40072;50.958;3.592;2023-02-17T05:34:41;9.85;;;4.43;;
54167;SDS011;40072;50.958;3.592;2023-02-17T05:37:07;5.95;;;3.88;;
54167;SDS011;40072;50.958;3.592;2023-02-17T05:39:33;12.32;;;5.25;;
54167;SDS011;40072;50.958;3.592;2023-02-17T05:41:59;7.28;;;4.85;;
54167;SDS011;40072;50.958;3.592;2023-02-17T05:44:24;8.77;;;5.05;;
54167;SDS011;40072;50.958;3.592;2023-02-17T05:46:50;11.43;;;5.00;;
54167;SDS011;40072;50.958;3.592;2023-02-17T05:49:16;5.57;;;4.35;;
54167;SDS011;40072;50.958;3.592;2023-02-17T05:51:41;10.65;;;4.28;;
54167;SDS011;40072;50.958;3.592;2023-02-17T05:54:07;6.20;;;4.32;;
54167;SDS011;40072;50.958;3.592;2023-02-17T05:56:33;6.97;;;4.32;;
54167;SDS011;40072;50.958;3.592;2023-02-17T05:58:58;9.52;;;4.68;;
54167;SDS011;40072;50.958;3.592;2023-02-17T06:01:25;5.50;;;3.78;;
54167;SDS011;40072;50.958;3.592;2023-02-17T06:03:50;5.65;;;3.72;;
54167;SDS011;40072;50.958;3.592;2023-02-17T06:06:16;7.05;;;4.38;;
54167;SDS011;40072;50.958;3.592;2023-02-17T06:08:42;5.25;;;4.38;;
54167;SDS011;40072;50.958;3.592;2023-02-17T06:11:08;5.57;;;4.20;;
54167;SDS011;40072;50.958;3.592;2023-02-17T06:13:33;4.88;;;3.28;;
54167;SDS011;40072;50.958;3.592;2023-02-17T06:15:59;4.65;;;3.58;;
54167;SDS011;40072;50.958;3.592;2023-02-17T06:18:25;6.30;;;4.07;;
54167;SDS011;40072;50.958;3.592;2023-02-17T06:20:53;4.13;;;3.72;;
54167;SDS011;40072;50.958;3.592;2023-02-17T06:23:20;4.10;;;3.70;;
54167;SDS011;40072;50.958;3.592;2023-02-17T06:25:47;5.45;;;3.80;;
54167;SDS011;40072;50.958;3.592;2023-02-17T06:28:12;3.90;;;3.60;;
54167;SDS011;40072;50.958;3.592;2023-02-17T06:30:38;5.50;;;4.10;;
54167;SDS011;40072;50.958;3.592;2023-02-17T06:33:04;5.07;;;3.38;;
54167;SDS011;40072;50.958;3.592;2023-02-17T06:35:29;4.20;;;3.90;;
54167;SDS011;40072;50.958;3.592;2023-02-17T06:37:55;4.10;;;3.70;;
54167;SDS011;40072;50.958;3.592;2023-02-17T06:40:21;4.15;;;3.25;;
54167;SDS011;40072;50.958;3.592;2023-02-17T06:42:46;5.32;;;3.35;;
54167;SDS011;40072;50.958;3.592;2023-02-17T06:45:12;3.95;;;3.15;;
54167;SDS011;40072;50.958;3.592;2023-02-17T06:47:38;4.35;;;3.05;;
54167;SDS011;40072;50.958;3.592;2023-02-17T06:50:04;3.25;;;2.95;;
54167;SDS011;40072;50.958;3.592;2023-02-17T06:52:30;5.00;;;3.72;;
54167;SDS011;40072;50.958;3.592;2023-02-17T06:54:55;6.80;;;3.95;;
54167;SDS011;40072;50.958;3.592;2023-02-17T06:57:21;4.40;;;3.30;;
54167;SDS011;40072;50.958;3.592;2023-02-17T06:59:47;3.05;;;2.85;;
54167;SDS011;40072;50.958;3.592;2023-02-17T07:02:13;4.28;;;3.00;;
54167;SDS011;40072;50.958;3.592;2023-02-17T07:04:39;4.22;;;3.25;;
54167;SDS011;40072;50.958;3.592;2023-02-17T07:07:05;2.72;;;2.53;;
54167;SDS011;40072;50.958;3.592;2023-02-17T07:09:32;2.90;;;2.70;;
54167;SDS011;40072;50.958;3.592;2023-02-17T07:11:57;2.50;;;2.30;;
54167;SDS011;40072;50.958;3.592;2023-02-17T07:14:24;3.28;;;2.38;;
54167;SDS011;40072;50.958;3.592;2023-02-17T07:16:50;3.25;;;2.90;;
54167;SDS011;40072;50.958;3.592;2023-02-17T07:19:16;2.50;;;2.38;;
54167;SDS011;40072;50.958;3.592;2023-02-17T07:21:42;2.22;;;2.13;;
54167;SDS011;40072;50.958;3.592;2023-02-17T07:24:09;2.88;;;2.65;;
54167;SDS011;40072;50.958;3.592;2023-02-17T07:26:38;2.40;;;2.20;;
54167;SDS011;40072;50.958;3.592;2023-02-17T07:29:05;2.58;;;2.38;;
54167;SDS011;40072;50.958;3.592;2023-02-17T07:31:31;3.80;;;2.38;;
54167;SDS011;40072;50.958;3.592;2023-02-17T07:33:59;2.20;;;2.03;;
54167;SDS011;40072;50.958;3.592;2023-02-17T07:36:26;1.98;;;1.88;;
54167;SDS011;40072;50.958;3.592;2023-02-17T07:38:52;3.25;;;1.98;;
54167;SDS011;40072;50.958;3.592;2023-02-17T07:41:19;2.42;;;2.08;;
54167;SDS011;40072;50.958;3.592;2023-02-17T07:43:46;1.85;;;1.75;;
54167;SDS011;40072;50.958;3.592;2023-02-17T07:46:13;1.60;;;1.50;;
54167;SDS011;40072;50.958;3.592;2023-02-17T07:48:39;3.35;;;1.30;;
54167;SDS011;40072;50.958;3.592;2023-02-17T07:51:05;1.40;;;1.30;;
54167;SDS011;40072;50.958;3.592;2023-02-17T07:53:32;1.30;;;1.02;;
54167;SDS011;40072;50.958;3.592;2023-02-17T07:55:58;1.02;;;1.00;;
54167;SDS011;40072;50.958;3.592;2023-02-17T07:58:26;1.45;;;0.95;;
54167;SDS011;40072;50.958;3.592;2023-02-17T08:00:51;1.30;;;1.08;;
54167;SDS011;40072;50.958;3.592;2023-02-17T08:03:17;1.45;;;0.90;;
54167;SDS011;40072;50.958;3.592;2023-02-17T08:05:43;1.20;;;1.00;;
54167;SDS011;40072;50.958;3.592;2023-02-17T08:08:08;0.57;;;0.57;;
54167;SDS011;40072;50.958;3.592;2023-02-17T08:10:53;1.30;;;1.20;;
54167;SDS011;40072;50.958;3.592;2023-02-17T08:13:37;1.35;;;0.73;;
54167;SDS011;40072;50.958;3.592;2023-02-17T08:16:03;4.63;;;1.48;;
54167;SDS011;40072;50.958;3.592;2023-02-17T08:18:29;2.38;;;1.02;;
54167;SDS011;40072;50.958;3.592;2023-02-17T08:20:54;2.90;;;0.93;;
54167;SDS011;40072;50.958;3.592;2023-02-17T08:23:20;0.77;;;0.77;;
54167;SDS011;40072;50.958;3.592;2023-02-17T08:25:46;0.95;;;0.70;;
54167;SDS011;40072;50.958;3.592;2023-02-17T08:28:12;0.60;;;0.60;;
54167;SDS011;40072;50.958;3.592;2023-02-17T08:30:38;1.02;;;0.90;;
54167;SDS011;40072;50.958;3.592;2023-02-17T08:33:04;0.95;;;0.60;;
54167;SDS011;40072;50.958;3.592;2023-02-17T08:35:30;1.48;;;0.77;;
54167;SDS011;40072;50.958;3.592;2023-02-17T08:37:56;2.50;;;1.10;;
54167;SDS011;40072;50.958;3.592;2023-02-17T08:40:22;2.22;;;0.98;;
54167;SDS011;40072;50.958;3.592;2023-02-17T08:42:48;0.82;;;0.63;;
54167;SDS011;40072;50.958;3.592;2023-02-17T08:45:14;0.85;;;0.82;;
54167;SDS011;40072;50.958;3.592;2023-02-17T08:47:40;2.08;;;0.98;;
54167;SDS011;40072;50.958;3.592;2023-02-17T08:50:06;3.40;;;0.75;;
54167;SDS011;40072;50.958;3.592;2023-02-17T08:52:34;3.08;;;1.00;;
54167;SDS011;40072;50.958;3.592;2023-02-17T08:55:00;0.80;;;0.70;;
54167;SDS011;40072;50.958;3.592;2023-02-17T08:57:25;0.77;;;0.60;;
54167;SDS011;40072;50.958;3.592;2023-02-17T08:59:52;2.13;;;0.85;;
54167;SDS011;40072;50.958;3.592;2023-02-17T09:02:18;1.05;;;0.77;;
54167;SDS011;40072;50.958;3.592;2023-02-17T09:04:44;1.38;;;0.88;;
54167;SDS011;40072;50.958;3.592;2023-02-17T09:07:11;1.30;;;0.93;;
54167;SDS011;40072;50.958;3.592;2023-02-17T09:09:38;2.35;;;0.90;;
54167;SDS011;40072;50.958;3.592;2023-02-17T09:12:05;1.58;;;0.90;;
54167;SDS011;40072;50.958;3.592;2023-02-17T09:14:31;1.48;;;1.05;;
54167;SDS011;40072;50.958;3.592;2023-02-17T09:16:56;1.80;;;0.95;;
54167;SDS011;40072;50.958;3.592;2023-02-17T09:19:22;1.63;;;0.73;;
54167;SDS011;40072;50.958;3.592;2023-02-17T09:21:49;0.85;;;0.50;;
54167;SDS011;40072;50.958;3.592;2023-02-17T09:24:15;1.20;;;1.10;;
54167;SDS011;40072;50.958;3.592;2023-02-17T09:26:42;2.80;;;1.25;;
54167;SDS011;40072;50.958;3.592;2023-02-17T09:29:07;2.58;;;1.67;;
54167;SDS011;40072;50.958;3.592;2023-02-17T09:31:33;1.73;;;1.63;;
54167;SDS011;40072;50.958;3.592;2023-02-17T09:34:00;1.65;;;1.50;;
54167;SDS011;40072;50.958;3.592;2023-02-17T09:36:27;1.90;;;1.50;;
54167;SDS011;40072;50.958;3.592;2023-02-17T09:38:55;2.35;;;2.15;;
54167;SDS011;40072;50.958;3.592;2023-02-17T09:41:37;2.88;;;2.03;;
54167;SDS011;40072;50.958;3.592;2023-02-17T09:44:16;2.65;;;2.25;;
54167;SDS011;40072;50.958;3.592;2023-02-17T09:46:48;3.22;;;2.10;;
54167;SDS011;40072;50.958;3.592;2023-02-17T09:49:19;2.53;;;2.33;;
54167;SDS011;40072;50.958;3.592;2023-02-17T09:57:39;3.45;;;1.90;;
54167;SDS011;40072;50.958;3.592;2023-02-17T10:00:25;2.13;;;1.70;;
54167;SDS011;40072;50.958;3.592;2023-02-17T10:05:37;6.05;;;2.42;;
54167;SDS011;40072;50.958;3.592;2023-02-17T10:08:14;4.13;;;2.63;;
54167;SDS011;40072;50.958;3.592;2023-02-17T10:10:53;5.82;;;2.78;;
54167;SDS011;40072;50.958;3.592;2023-02-17T10:13:29;4.43;;;2.05;;
54167;SDS011;40072;50.958;3.592;2023-02-17T10:15:58;2.00;;;1.70;;
54167;SDS011;40072;50.958;3.592;2023-02-17T10:18:30;1.20;;;1.00;;
54167;SDS011;40072;50.958;3.592;2023-02-17T10:21:10;5.55;;;1.92;;
54167;SDS011;40072;50.958;3.592;2023-02-17T10:23:43;4.03;;;1.80;;
54167;SDS011;40072;50.958;3.592;2023-02-17T10:28:49;5.15;;;2.15;;
54167;SDS011;40072;50.958;3.592;2023-02-17T10:41:12;3.42;;;1.10;;
54167;SDS011;40072;50.958;3.592;2023-02-17T10:43:39;1.02;;;0.93;;
54167;SDS011;40072;50.958;3.592;2023-02-17T10:46:08;2.20;;;0.85;;
54167;SDS011;40072;50.958;3.592;2023-02-17T10:48:41;3.88;;;0.90;;
54167;SDS011;40072;50.958;3.592;2023-02-17T10:51:15;2.58;;;1.13;;
54167;SDS011;40072;50.958;3.592;2023-02-17T10:53:48;1.98;;;0.60;;
54167;SDS011;40072;50.958;3.592;2023-02-17T11:02:19;2.75;;;0.88;;
54167;SDS011;40072;50.958;3.592;2023-02-17T11:04:48;3.03;;;0.77;;
54167;SDS011;40072;50.958;3.592;2023-02-17T11:07:26;0.73;;;0.57;;
54167;SDS011;40072;50.958;3.592;2023-02-17T11:12:49;1.45;;;0.63;;
54167;SDS011;40072;50.958;3.592;2023-02-17T11:15:19;1.55;;;0.80;;
54167;SDS011;40072;50.958;3.592;2023-02-17T11:17:48;1.17;;;0.50;;
54167;SDS011;40072;50.958;3.592;2023-02-17T11:25:28;1.42;;;0.73;;
54167;SDS011;40072;50.958;3.592;2023-02-17T11:28:00;1.23;;;0.77;;
54167;SDS011;40072;50.958;3.592;2023-02-17T11:30:28;2.05;;;0.82;;
54167;SDS011;40072;50.958;3.592;2023-02-17T11:32:55;1.23;;;0.80;;
54167;SDS011;40072;50.958;3.592;2023-02-17T11:35:26;1.75;;;0.85;;
54167;SDS011;40072;50.958;3.592;2023-02-17T11:38:10;1.27;;;0.70;;
54167;SDS011;40072;50.958;3.592;2023-02-17T11:40:38;2.60;;;0.55;;
54167;SDS011;40072;50.958;3.592;2023-02-17T11:43:04;1.92;;;0.88;;
54167;SDS011;40072;50.958;3.592;2023-02-17T11:45:37;4.35;;;0.80;;
54167;SDS011;40072;50.958;3.592;2023-02-17T11:51:17;2.42;;;0.70;;
54167;SDS011;40072;50.958;3.592;2023-02-17T11:56:34;2.40;;;0.70;;
54167;SDS011;40072;50.958;3.592;2023-02-17T11:59:21;0.40;;;0.40;;
54167;SDS011;40072;50.958;3.592;2023-02-17T12:01:59;0.77;;;0.60;;
54167;SDS011;40072;50.958;3.592;2023-02-17T12:07:21;1.10;;;0.38;;
54167;SDS011;40072;50.958;3.592;2023-02-17T12:21:13;1.77;;;0.32;;
54167;SDS011;40072;50.958;3.592;2023-02-17T12:26:46;1.83;;;0.40;;
54167;SDS011;40072;50.958;3.592;2023-02-17T12:29:24;1.75;;;0.50;;
54167;SDS011;40072;50.958;3.592;2023-02-17T12:32:05;1.40;;;0.50;;
54167;SDS011;40072;50.958;3.592;2023-02-17T12:35:17;0.47;;;0.28;;
54167;SDS011;40072;50.958;3.592;2023-02-17T12:38:32;0.47;;;0.25;;
54167;SDS011;40072;50.958;3.592;2023-02-17T12:40:44;3.50;;;0.70;;
54167;SDS011;40072;50.958;3.592;2023-02-17T12:45:48;0.95;;;0.32;;
54167;SDS011;40072;50.958;3.592;2023-02-17T12:51:09;5.83;;;0.70;;
54167;SDS011;40072;50.958;3.592;2023-02-17T12:54:03;1.65;;;0.20;;
54167;SDS011;40072;50.958;3.592;2023-02-17T12:56:44;1.48;;;0.50;;
54167;SDS011;40072;50.958;3.592;2023-02-17T12:59:21;2.08;;;0.50;;
54167;SDS011;40072;50.958;3.592;2023-02-17T13:02:15;0.88;;;0.32;;
54167;SDS011;40072;50.958;3.592;2023-02-17T13:04:44;2.35;;;0.50;;
54167;SDS011;40072;50.958;3.592;2023-02-17T13:07:33;1.60;;;0.47;;
54167;SDS011;40072;50.958;3.592;2023-02-17T13:10:19;0.93;;;0.60;;
54167;SDS011;40072;50.958;3.592;2023-02-17T13:13:08;3.38;;;0.77;;
54167;SDS011;40072;50.958;3.592;2023-02-17T13:18:04;2.78;;;0.50;;
54167;SDS011;40072;50.958;3.592;2023-02-17T13:20:50;0.73;;;0.40;;
54167;SDS011;40072;50.958;3.592;2023-02-17T13:26:23;0.65;;;0.40;;
54167;SDS011;40072;50.958;3.592;2023-02-17T13:28:52;3.83;;;0.40;;
54167;SDS011;40072;50.958;3.592;2023-02-17T13:31:30;0.82;;;0.30;;
54167;SDS011;40072;50.958;3.592;2023-02-17T13:33:57;6.78;;;0.60;;
54167;SDS011;40072;50.958;3.592;2023-02-17T13:38:52;1.77;;;0.65;;
54167;SDS011;40072;50.958;3.592;2023-02-17T13:41:24;3.70;;;0.95;;
54167;SDS011;40072;50.958;3.592;2023-02-17T13:43:50;1.50;;;0.63;;
54167;SDS011;40072;50.958;3.592;2023-02-17T13:46:20;2.17;;;0.63;;
54167;SDS011;40072;50.958;3.592;2023-02-17T13:49:03;3.50;;;0.70;;
54167;SDS011;40072;50.958;3.592;2023-02-17T13:51:30;2.28;;;0.88;;
54167;SDS011;40072;50.958;3.592;2023-02-17T13:54:03;1.85;;;0.75;;
54167;SDS011;40072;50.958;3.592;2023-02-17T13:56:30;2.20;;;0.52;;
54167;SDS011;40072;50.958;3.592;2023-02-17T13:59:06;1.50;;;0.68;;
54167;SDS011;40072;50.958;3.592;2023-02-17T14:01:39;1.33;;;0.50;;
54167;SDS011;40072;50.958;3.592;2023-02-17T14:04:16;3.85;;;0.77;;
54167;SDS011;40072;50.958;3.592;2023-02-17T14:06:45;15.30;;;1.33;;
54167;SDS011;40072;50.958;3.592;2023-02-17T14:09:30;1.70;;;0.40;;
54167;SDS011;40072;50.958;3.592;2023-02-17T14:11:57;1.80;;;0.55;;
54167;SDS011;40072;50.958;3.592;2023-02-17T14:14:30;2.58;;;0.90;;
54167;SDS011;40072;50.958;3.592;2023-02-17T14:17:03;1.77;;;0.80;;
54167;SDS011;40072;50.958;3.592;2023-02-17T14:19:40;2.35;;;0.80;;
54167;SDS011;40072;50.958;3.592;2023-02-17T14:22:21;1.50;;;0.73;;
54167;SDS011;40072;50.958;3.592;2023-02-17T14:24:59;1.20;;;0.80;;
54167;SDS011;40072;50.958;3.592;2023-02-17T14:27:39;1.33;;;0.65;;
54167;SDS011;40072;50.958;3.592;2023-02-17T14:30:26;4.85;;;1.27;;
54167;SDS011;40072;50.958;3.592;2023-02-17T14:33:04;3.47;;;1.10;;
54167;SDS011;40072;50.958;3.592;2023-02-17T14:35:30;2.33;;;0.82;;
54167;SDS011;40072;50.958;3.592;2023-02-17T14:40:50;1.88;;;0.90;;
54167;SDS011;40072;50.958;3.592;2023-02-17T14:43:20;4.88;;;1.10;;
54167;SDS011;40072;50.958;3.592;2023-02-17T14:45:47;2.58;;;0.88;;
54167;SDS011;40072;50.958;3.592;2023-02-17T14:48:13;4.55;;;1.10;;
54167;SDS011;40072;50.958;3.592;2023-02-17T14:50:38;2.63;;;1.30;;
54167;SDS011;40072;50.958;3.592;2023-02-17T14:53:29;2.83;;;1.15;;
54167;SDS011;40072;50.958;3.592;2023-02-17T14:58:38;7.40;;;1.05;;
54167;SDS011;40072;50.958;3.592;2023-02-17T15:01:03;1.50;;;1.10;;
54167;SDS011;40072;50.958;3.592;2023-02-17T15:03:30;2.92;;;1.25;;
54167;SDS011;40072;50.958;3.592;2023-02-17T15:05:56;4.82;;;1.50;;
54167;SDS011;40072;50.958;3.592;2023-02-17T15:08:32;3.40;;;1.25;;
54167;SDS011;40072;50.958;3.592;2023-02-17T15:10:58;5.25;;;1.42;;
54167;SDS011;40072;50.958;3.592;2023-02-17T15:13:25;3.80;;;1.73;;
54167;SDS011;40072;50.958;3.592;2023-02-17T15:15:51;4.55;;;2.35;;
54167;SDS011;40072;50.958;3.592;2023-02-17T15:18:17;4.07;;;2.38;;
54167;SDS011;40072;50.958;3.592;2023-02-17T15:20:45;13.18;;;2.92;;
54167;SDS011;40072;50.958;3.592;2023-02-17T15:23:20;4.50;;;3.30;;
54167;SDS011;40072;50.958;3.592;2023-02-17T15:25:47;3.33;;;3.03;;
54167;SDS011;40072;50.958;3.592;2023-02-17T15:28:15;8.50;;;3.80;;
54167;SDS011;40072;50.958;3.592;2023-02-17T15:30:43;5.15;;;3.42;;
54167;SDS011;40072;50.958;3.592;2023-02-17T15:33:20;10.80;;;3.65;;
54167;SDS011;40072;50.958;3.592;2023-02-17T15:35:47;8.25;;;3.58;;
54167;SDS011;40072;50.958;3.592;2023-02-17T15:38:17;5.78;;;3.10;;
54167;SDS011;40072;50.958;3.592;2023-02-17T15:40:43;6.53;;;2.83;;
54167;SDS011;40072;50.958;3.592;2023-02-17T15:43:14;5.10;;;2.38;;
54167;SDS011;40072;50.958;3.592;2023-02-17T15:45:43;7.10;;;2.05;;
54167;SDS011;40072;50.958;3.592;2023-02-17T15:48:10;9.00;;;2.00;;
54167;SDS011;40072;50.958;3.592;2023-02-17T15:50:42;5.53;;;1.80;;
54167;SDS011;40072;50.958;3.592;2023-02-17T15:53:08;7.60;;;1.88;;
54167;SDS011;40072;50.958;3.592;2023-02-17T15:55:33;8.95;;;2.53;;
54167;SDS011;40072;50.958;3.592;2023-02-17T15:58:01;4.38;;;1.80;;
54167;SDS011;40072;50.958;3.592;2023-02-17T16:00:33;5.28;;;2.00;;
54167;SDS011;40072;50.958;3.592;2023-02-17T16:02:59;5.72;;;2.67;;
54167;SDS011;40072;50.958;3.592;2023-02-17T16:05:26;9.20;;;2.72;;
54167;SDS011;40072;50.958;3.592;2023-02-17T16:07:53;7.20;;;1.92;;
54167;SDS011;40072;50.958;3.592;2023-02-17T16:10:20;10.82;;;2.53;;
54167;SDS011;40072;50.958;3.592;2023-02-17T16:12:48;4.68;;;1.42;;
54167;SDS011;40072;50.958;3.592;2023-02-17T16:15:16;5.50;;;2.17;;
54167;SDS011;40072;50.958;3.592;2023-02-17T16:17:45;6.60;;;1.90;;
54167;SDS011;40072;50.958;3.592;2023-02-17T16:20:21;9.73;;;2.22;;
54167;SDS011;40072;50.958;3.592;2023-02-17T16:22:49;7.90;;;1.75;;
54167;SDS011;40072;50.958;3.592;2023-02-17T16:25:15;10.70;;;2.35;;
54167;SDS011;40072;50.958;3.592;2023-02-17T16:27:42;8.07;;;1.88;;
54167;SDS011;40072;50.958;3.592;2023-02-17T16:30:14;15.07;;;2.55;;
54167;SDS011;40072;50.958;3.592;2023-02-17T16:32:47;7.85;;;2.28;;
54167;SDS011;40072;50.958;3.592;2023-02-17T16:35:15;9.43;;;2.85;;
54167;SDS011;40072;50.958;3.592;2023-02-17T16:37:45;6.97;;;2.38;;
54167;SDS011;40072;50.958;3.592;2023-02-17T16:40:16;9.15;;;2.05;;
54167;SDS011;40072;50.958;3.592;2023-02-17T16:42:43;6.70;;;2.47;;
54167;SDS011;40072;50.958;3.592;2023-02-17T16:45:19;8.55;;;2.95;;
54167;SDS011;40072;50.958;3.592;2023-02-17T16:47:48;10.52;;;3.00;;